createdAt,value
2018-01-08T00:00:36.599Z,5.70
2018-01-08T00:03:05.811Z,5.70
2018-01-08T00:05:34.205Z,5.70
2018-01-08T00:08:03.190Z,5.70
2018-01-08T00:10:31.343Z,5.70
2018-01-08T00:13:00.237Z,5.70
2018-01-08T00:15:29.149Z,5.80
2018-01-08T00:17:58.038Z,5.80
2018-01-08T00:20:26.216Z,5.70
2018-01-08T00:22:54.341Z,5.80
2018-01-08T00:25:22.459Z,5.80
2018-01-08T00:27:50.634Z,5.80
2018-01-08T00:30:18.749Z,5.80
2018-01-08T00:32:47.661Z,5.70
2018-01-08T00:35:16.583Z,5.70
2018-01-08T00:37:44.726Z,5.70
2018-01-08T00:40:13.618Z,5.80
2018-01-08T00:42:42.539Z,5.80
2018-01-08T00:45:10.661Z,5.70
2018-01-08T00:47:38.841Z,5.70
2018-01-08T00:50:07.725Z,5.70
2018-01-08T00:52:35.945Z,5.70
2018-01-08T00:55:04.809Z,5.70
2018-01-08T00:57:32.948Z,5.70
2018-01-08T01:00:02.616Z,5.70
2018-01-08T01:02:31.481Z,5.70
2018-01-08T01:04:59.681Z,5.70
2018-01-08T01:07:27.769Z,5.70
2018-01-08T01:09:55.892Z,5.70
2018-01-08T01:12:24.799Z,5.70
2018-01-08T01:14:52.922Z,5.60
2018-01-08T01:17:22.572Z,5.60
2018-01-08T01:19:51.458Z,5.60
2018-01-08T01:22:19.590Z,5.60
2018-01-08T01:24:47.722Z,5.60
2018-01-08T01:27:15.843Z,5.60
2018-01-08T01:29:44.069Z,5.60
2018-01-08T01:32:12.960Z,5.60
2018-01-08T01:34:41.101Z,5.60
2018-01-08T01:37:10.014Z,5.60
2018-01-08T01:39:38.194Z,5.60
2018-01-08T01:42:07.066Z,5.60
2018-01-08T01:44:35.258Z,5.60
2018-01-08T01:47:04.248Z,5.60
2018-01-08T01:49:33.243Z,5.60
2018-01-08T01:52:01.357Z,5.60
2018-01-08T01:54:29.589Z,5.60
2018-01-08T01:56:57.702Z,5.60
2018-01-08T01:59:25.912Z,5.60
2018-01-08T02:01:54.859Z,5.60
2018-01-08T02:04:22.973Z,5.60
2018-01-08T02:06:51.095Z,5.70
2018-01-08T02:09:19.319Z,5.70
2018-01-08T02:11:48.233Z,5.70
2018-01-08T02:14:17.094Z,5.70
2018-01-08T02:16:46.011Z,5.70
2018-01-08T02:19:14.961Z,5.70
2018-01-08T02:21:43.851Z,5.70
2018-01-08T02:24:12.733Z,5.70
2018-01-08T02:26:40.919Z,5.60
2018-01-08T02:29:09.847Z,5.70
2018-01-08T02:31:38.737Z,5.70
2018-01-08T02:34:06.850Z,5.60
2018-01-08T02:36:34.973Z,5.70
2018-01-08T02:39:03.112Z,5.60
2018-01-08T02:41:31.991Z,5.60
2018-01-08T02:44:00.215Z,5.60
2018-01-08T02:46:29.207Z,5.70
2018-01-08T02:48:58.092Z,5.60
2018-01-08T02:51:27.874Z,5.60
2018-01-08T02:53:57.212Z,5.70
2018-01-08T02:56:26.201Z,5.70
2018-01-08T02:58:55.162Z,5.60
2018-01-08T03:01:24.187Z,5.70
2018-01-08T03:03:52.293Z,5.70
2018-01-08T03:06:20.532Z,5.70
2018-01-08T03:08:49.392Z,5.70
2018-01-08T03:11:18.413Z,5.70
2018-01-08T03:13:47.307Z,5.70
2018-01-08T03:16:15.412Z,5.70
2018-01-08T03:18:43.649Z,5.70
2018-01-08T03:21:12.500Z,5.60
2018-01-08T03:23:41.434Z,5.60
2018-01-08T03:26:09.575Z,5.70
2018-01-08T03:28:38.561Z,5.70
2018-01-08T03:31:07.455Z,5.70
2018-01-08T03:33:36.376Z,5.70
2018-01-08T03:36:05.265Z,5.70
2018-01-08T03:38:33.406Z,5.70
2018-01-08T03:41:02.327Z,5.60
2018-01-08T03:43:31.190Z,5.60
2018-01-08T03:46:00.090Z,5.60
2018-01-08T03:48:28.213Z,5.60
2018-01-08T03:50:56.454Z,5.60
2018-01-08T03:53:25.316Z,5.60
2018-01-08T03:55:54.336Z,5.60
2018-01-08T03:58:23.223Z,5.60
2018-01-08T04:00:51.361Z,5.60
2018-01-08T04:03:20.266Z,5.60
2018-01-08T04:05:49.148Z,5.60
2018-01-08T04:08:18.051Z,5.60
2018-01-08T04:10:46.238Z,5.60
2018-01-08T04:13:15.112Z,5.60
2018-01-08T04:15:43.303Z,5.50
2018-01-08T04:18:12.171Z,5.60
2018-01-08T04:20:41.054Z,5.50
2018-01-08T04:23:09.947Z,5.50
2018-01-08T04:25:38.840Z,5.50
2018-01-08T04:28:06.994Z,5.50
2018-01-08T04:30:35.105Z,5.50
2018-01-08T04:33:03.281Z,5.50
2018-01-08T04:35:31.451Z,5.50
2018-01-08T04:38:00.360Z,5.50
2018-01-08T04:40:28.574Z,5.50
2018-01-08T04:42:57.475Z,5.50
2018-01-08T04:45:26.362Z,5.40
2018-01-08T04:47:55.323Z,5.40
2018-01-08T04:50:23.463Z,5.40
2018-01-08T04:52:51.736Z,5.40
2018-01-08T04:55:20.593Z,5.40
2018-01-08T04:57:49.483Z,5.40
2018-01-08T05:00:18.404Z,5.40
2018-01-08T05:02:46.509Z,5.40
2018-01-08T05:05:14.645Z,5.40
2018-01-08T05:07:42.787Z,5.40
2018-01-08T05:10:11.719Z,5.40
2018-01-08T05:12:40.566Z,5.40
2018-01-08T05:15:09.494Z,5.40
2018-01-08T05:17:37.597Z,5.40
2018-01-08T05:20:05.733Z,5.40
2018-01-08T05:22:33.909Z,5.40
2018-01-08T05:25:02.899Z,5.40
2018-01-08T05:27:31.890Z,5.40
2018-01-08T05:30:00.760Z,5.40
2018-01-08T05:32:29.117Z,5.40
2018-01-08T05:34:57.248Z,5.40
2018-01-08T05:37:25.403Z,5.40
2018-01-08T05:39:54.293Z,5.40
2018-01-08T05:42:22.401Z,5.40
2018-01-08T05:44:50.638Z,5.40
2018-01-08T05:47:19.506Z,5.40
2018-01-08T05:49:48.418Z,5.40
2018-01-08T05:52:16.592Z,5.40
2018-01-08T05:54:45.553Z,5.40
2018-01-08T05:57:14.474Z,5.30
2018-01-08T05:59:43.355Z,5.40
2018-01-08T06:02:11.482Z,5.30
2018-01-08T06:04:39.623Z,5.40
2018-01-08T06:07:07.881Z,5.40
2018-01-08T06:09:36.746Z,5.40
2018-01-08T06:12:05.649Z,5.40
2018-01-08T06:14:33.771Z,5.30
2018-01-08T06:17:01.898Z,5.40
2018-01-08T06:19:30.077Z,5.40
2018-01-08T06:21:58.984Z,5.40
2018-01-08T06:24:27.100Z,5.40
2018-01-08T06:26:55.982Z,5.40
2018-01-08T06:29:24.165Z,5.40
2018-01-08T06:31:53.049Z,5.40
2018-01-08T06:34:21.267Z,5.40
2018-01-08T06:36:50.157Z,5.40
2018-01-08T06:39:19.155Z,5.40
2018-01-08T06:41:47.325Z,5.30
2018-01-08T06:44:16.215Z,5.30
2018-01-08T06:46:44.385Z,5.30
2018-01-08T06:49:13.255Z,5.30
2018-01-08T06:51:41.394Z,5.30
2018-01-08T06:54:09.518Z,5.30
2018-01-08T06:56:37.645Z,5.20
2018-01-08T06:59:05.864Z,5.20
2018-01-08T07:01:34.755Z,5.20
2018-01-08T07:04:02.877Z,5.20
2018-01-08T07:06:31.017Z,5.20
2018-01-08T07:08:59.141Z,5.20
2018-01-08T07:11:28.128Z,5.20
2018-01-08T07:13:56.284Z,5.20
2018-01-08T07:16:24.512Z,5.20
2018-01-08T07:18:53.459Z,5.20
2018-01-08T07:21:21.586Z,5.20
2018-01-08T07:23:50.851Z,5.20
2018-01-08T07:26:19.043Z,5.20
2018-01-08T07:28:47.141Z,5.20
2018-01-08T07:31:15.291Z,5.20
2018-01-08T07:33:43.462Z,5.30
2018-01-08T07:36:12.354Z,5.20
2018-01-08T07:38:40.455Z,5.20
2018-01-08T07:41:08.658Z,5.20
2018-01-08T07:43:37.589Z,5.30
2018-01-08T07:46:06.453Z,5.30
2018-01-08T07:48:35.434Z,5.30
2018-01-08T07:51:04.362Z,5.20
2018-01-08T07:53:32.478Z,5.20
2018-01-08T07:56:00.602Z,5.30
2018-01-08T07:58:28.735Z,5.30
2018-01-08T08:00:57.631Z,5.20
2018-01-08T08:03:26.541Z,5.30
2018-01-08T08:05:54.665Z,5.30
2018-01-08T08:08:22.878Z,5.30
2018-01-08T08:10:51.772Z,5.30
2018-01-08T08:13:19.967Z,5.30
2018-01-08T08:15:48.854Z,5.30
2018-01-08T08:18:17.027Z,5.30
2018-01-08T08:20:45.917Z,5.30
2018-01-08T08:23:14.062Z,5.30
2018-01-08T08:25:43.082Z,5.30
2018-01-08T08:28:11.970Z,5.30
2018-01-08T08:30:40.098Z,5.30
2018-01-08T08:33:08.259Z,5.30
2018-01-08T08:35:36.375Z,5.30
2018-01-08T08:38:04.536Z,5.30
2018-01-08T08:40:32.665Z,5.30
2018-01-08T08:43:00.875Z,5.30
2018-01-08T08:45:29.766Z,5.40
2018-01-08T08:47:57.901Z,5.30
2018-01-08T08:50:26.113Z,5.40
2018-01-08T08:52:55.003Z,5.40
2018-01-08T08:55:23.933Z,5.50
2018-01-08T08:57:52.924Z,5.40
2018-01-08T09:00:21.048Z,5.40
2018-01-08T09:02:49.228Z,5.40
2018-01-08T09:05:17.369Z,5.40
2018-01-08T09:07:45.479Z,5.50
2018-01-08T09:10:14.462Z,5.50
2018-01-08T09:12:43.378Z,5.50
2018-01-08T09:15:11.569Z,5.50
2018-01-08T09:17:39.698Z,5.60
2018-01-08T09:20:08.698Z,5.60
2018-01-08T09:22:37.599Z,5.70
2018-01-08T09:25:05.728Z,5.60
2018-01-08T09:27:33.894Z,5.70
2018-01-08T09:30:02.022Z,5.70
2018-01-08T09:32:30.157Z,5.70
2018-01-08T09:34:58.298Z,5.60
2018-01-08T09:37:26.464Z,5.70
2018-01-08T09:39:54.638Z,5.70
2018-01-08T09:42:22.744Z,5.70
2018-01-08T09:44:50.910Z,5.70
2018-01-08T09:47:19.187Z,5.80
2018-01-08T09:49:47.394Z,5.80
2018-01-08T09:52:16.636Z,6.00
2018-01-08T09:54:44.748Z,6.00
2018-01-08T09:57:12.998Z,6.10
2018-01-08T09:59:41.121Z,6.20
2018-01-08T10:02:09.555Z,6.40
2018-01-08T10:04:49.622Z,6.50
2018-01-08T10:07:29.770Z,6.60
2018-01-08T10:10:10.090Z,6.70
2018-01-08T10:12:50.238Z,6.70
2018-01-08T10:15:31.314Z,6.60
2018-01-08T10:18:12.083Z,6.50
2018-01-08T10:20:40.203Z,6.50
2018-01-08T10:23:08.402Z,6.50
2018-01-08T10:25:37.321Z,6.40
2018-01-08T10:28:06.262Z,6.40
2018-01-08T10:30:34.393Z,6.40
2018-01-08T10:33:07.544Z,6.40
2018-01-08T10:35:36.455Z,6.40
2018-01-08T10:38:04.637Z,6.40
2018-01-08T10:40:33.526Z,6.60
2018-01-08T10:43:07.330Z,6.60
2018-01-08T10:45:41.805Z,6.70
2018-01-08T10:48:17.196Z,6.70
2018-01-08T10:50:50.968Z,6.70
2018-01-08T10:53:34.738Z,6.80
2018-01-08T10:56:02.975Z,6.80
2018-01-08T10:58:31.864Z,6.80
2018-01-08T11:01:06.462Z,6.80
2018-01-08T11:06:30.189Z,6.80
2018-01-08T11:08:59.101Z,6.80
2018-01-08T11:11:28.102Z,6.80
2018-01-08T11:13:56.213Z,6.80
2018-01-08T11:16:24.328Z,6.90
2018-01-08T11:18:52.485Z,6.90
2018-01-08T11:21:21.384Z,7.00
2018-01-08T11:23:49.539Z,7.00
2018-01-08T11:26:18.532Z,7.10
2018-01-08T11:28:47.423Z,7.20
2018-01-08T11:31:16.411Z,7.30
2018-01-08T11:33:45.393Z,7.60
2018-01-08T11:36:13.720Z,7.60
2018-01-08T11:38:41.853Z,7.90
2018-01-08T11:41:10.780Z,8.00
2018-01-08T11:43:38.878Z,8.00
2018-01-08T11:46:07.020Z,8.10
2018-01-08T11:48:35.133Z,8.20
2018-01-08T11:51:03.267Z,8.20
2018-01-08T11:53:31.392Z,8.30
2018-01-08T11:55:59.519Z,8.50
2018-01-08T11:58:27.644Z,8.90
2018-01-08T12:00:55.763Z,9.30
2018-01-08T12:03:24.342Z,9.40
2018-01-08T12:05:52.514Z,9.40
2018-01-08T12:08:20.676Z,9.30
2018-01-08T12:10:48.816Z,9.10
2018-01-08T12:13:17.747Z,8.70
2018-01-08T12:15:45.867Z,8.70
2018-01-08T12:18:14.753Z,8.50
2018-01-08T12:20:42.898Z,8.50
2018-01-08T12:23:11.015Z,8.30
2018-01-08T12:25:39.962Z,8.10
2018-01-08T12:28:08.329Z,8.00
2018-01-08T12:30:37.648Z,8.00
2018-01-08T12:33:05.771Z,8.00
2018-01-08T12:35:34.654Z,8.20
2018-01-08T12:38:03.552Z,8.30
2018-01-08T12:40:31.681Z,8.30
2018-01-08T12:42:59.917Z,8.40
2018-01-08T12:45:28.909Z,8.40
2018-01-08T12:47:57.041Z,8.40
2018-01-08T12:50:25.164Z,8.40
2018-01-08T12:52:53.326Z,8.30
2018-01-08T12:55:22.226Z,8.50
2018-01-08T12:57:50.351Z,8.50
2018-01-08T13:00:18.480Z,8.80
2018-01-08T13:02:46.638Z,9.10
2018-01-08T13:05:14.817Z,9.20
2018-01-08T13:07:42.933Z,9.40
2018-01-08T13:10:11.258Z,9.60
2018-01-08T13:12:39.428Z,9.90
2018-01-08T13:15:08.283Z,10.20
2018-01-08T13:17:37.225Z,10.10
2018-01-08T13:20:05.382Z,10.10
2018-01-08T13:22:33.534Z,10.00
2018-01-08T13:25:02.445Z,9.90
2018-01-08T13:27:30.595Z,9.90
2018-01-08T13:29:59.503Z,9.60
2018-01-08T13:32:28.192Z,9.60
2018-01-08T13:34:56.358Z,9.50
2018-01-08T13:37:24.491Z,9.50
2018-01-08T13:39:52.633Z,9.50
2018-01-08T13:42:20.750Z,9.40
2018-01-08T13:44:49.663Z,9.50
2018-01-08T13:47:18.627Z,9.40
2018-01-08T13:49:47.523Z,9.30
2018-01-08T13:52:16.444Z,9.20
2018-01-08T13:54:45.433Z,9.10
2018-01-08T13:57:14.290Z,9.00
2018-01-08T13:59:43.185Z,8.90
2018-01-08T14:02:12.163Z,8.70
2018-01-08T14:04:41.067Z,8.60
2018-01-08T14:07:10.765Z,8.40
2018-01-08T14:09:39.699Z,8.20
2018-01-08T14:12:07.812Z,8.20
2018-01-08T14:14:35.932Z,8.10
2018-01-08T14:17:04.081Z,8.00
2018-01-08T14:19:32.967Z,7.80
2018-01-08T14:22:01.863Z,7.70
2018-01-08T14:24:30.748Z,7.60
2018-01-08T14:26:59.619Z,7.60
2018-01-08T14:29:27.745Z,7.60
2018-01-08T14:31:55.916Z,7.50
2018-01-08T14:34:24.044Z,7.40
2018-01-08T14:36:52.167Z,7.40
2018-01-08T14:39:20.283Z,7.30
2018-01-08T14:41:48.404Z,7.30
2018-01-08T14:44:16.572Z,7.20
2018-01-08T14:46:45.465Z,7.10
2018-01-08T14:49:14.326Z,7.10
2018-01-08T14:51:43.306Z,7.00
2018-01-08T14:54:11.622Z,7.00
2018-01-08T14:56:40.512Z,6.90
2018-01-08T14:59:08.606Z,6.90
2018-01-08T15:01:36.756Z,6.90
2018-01-08T15:04:04.870Z,6.80
2018-01-08T15:06:32.998Z,6.80
2018-01-08T15:09:01.118Z,6.70
2018-01-08T15:11:29.244Z,6.70
2018-01-08T15:13:57.376Z,6.60
2018-01-08T15:16:25.496Z,6.60
2018-01-08T15:18:53.643Z,6.60
2018-01-08T15:21:22.523Z,6.50
2018-01-08T15:23:51.400Z,6.50
2018-01-08T15:26:20.290Z,6.50
2018-01-08T15:28:49.181Z,6.40
2018-01-08T15:31:18.084Z,6.40
2018-01-08T15:33:46.985Z,6.40
2018-01-08T15:36:15.172Z,6.40
2018-01-08T15:38:43.284Z,6.40
2018-01-08T15:41:11.389Z,6.40
2018-01-08T15:43:40.305Z,6.40
2018-01-08T15:46:08.481Z,6.40
2018-01-08T15:48:36.595Z,6.40
2018-01-08T15:51:04.717Z,6.40
2018-01-08T15:53:32.851Z,6.40
2018-01-08T15:56:01.741Z,6.30
2018-01-08T15:58:30.676Z,6.30
2018-01-08T16:00:58.784Z,6.30
2018-01-08T16:03:26.902Z,6.30
2018-01-08T16:05:55.037Z,6.30
2018-01-08T16:08:23.160Z,6.30
2018-01-08T16:10:51.281Z,6.30
2018-01-08T16:13:19.510Z,6.20
2018-01-08T16:15:53.105Z,6.20
2018-01-08T16:18:22.006Z,6.20
2018-01-08T16:20:50.141Z,6.20
2018-01-08T16:23:19.060Z,6.20
2018-01-08T16:25:47.914Z,6.20
2018-01-08T16:28:16.822Z,6.20
2018-01-08T16:30:44.940Z,6.10
2018-01-08T16:33:13.078Z,6.10
2018-01-08T16:35:41.260Z,6.10
2018-01-08T16:38:10.260Z,6.10
2018-01-08T16:40:38.345Z,6.10
2018-01-08T16:43:06.492Z,6.10
2018-01-08T16:45:34.623Z,6.10
2018-01-08T16:48:02.743Z,6.10
2018-01-08T16:50:30.868Z,6.00
2018-01-08T16:52:58.995Z,6.00
2018-01-08T16:55:27.122Z,6.00
2018-01-08T16:57:56.001Z,6.00
2018-01-08T17:00:24.931Z,6.00
2018-01-08T17:02:53.104Z,6.00
2018-01-08T17:05:21.994Z,6.00
2018-01-08T17:07:50.884Z,6.00
2018-01-08T17:10:19.019Z,5.90
2018-01-08T17:12:47.911Z,5.90
2018-01-08T17:15:16.796Z,5.80
2018-01-08T17:17:44.952Z,5.80
2018-01-08T17:20:13.189Z,5.80
2018-01-08T17:22:41.358Z,5.80
2018-01-08T17:25:10.238Z,5.70
2018-01-08T17:27:38.364Z,5.70
2018-01-08T17:30:06.508Z,5.70
2018-01-08T17:32:34.653Z,5.70
2018-01-08T17:35:02.840Z,5.60
2018-01-08T17:37:30.977Z,5.70
2018-01-08T17:39:59.184Z,5.60
2018-01-08T17:42:28.042Z,5.60
2018-01-08T17:44:56.931Z,5.60
2018-01-08T17:47:25.834Z,5.60
2018-01-08T17:49:53.973Z,5.60
2018-01-08T17:52:22.119Z,5.60
2018-01-08T17:54:50.235Z,5.60
2018-01-08T17:57:19.149Z,5.60
2018-01-08T17:59:47.348Z,5.50
2018-01-08T18:02:16.335Z,5.50
2018-01-08T18:04:44.440Z,5.50
2018-01-08T18:07:12.603Z,5.50
2018-01-08T18:09:40.857Z,5.50
2018-01-08T18:12:08.949Z,5.50
2018-01-08T18:14:37.113Z,5.50
2018-01-08T18:17:05.271Z,5.40
2018-01-08T18:19:33.425Z,5.40
2018-01-08T18:22:01.550Z,5.40
2018-01-08T18:24:29.711Z,5.40
2018-01-08T18:26:58.608Z,5.40
2018-01-08T18:29:26.746Z,5.40
2018-01-08T18:31:54.866Z,5.40
2018-01-08T18:34:22.989Z,5.40
2018-01-08T18:36:51.148Z,5.40
2018-01-08T18:39:19.302Z,5.40
2018-01-08T18:41:47.426Z,5.40
2018-01-08T18:44:15.628Z,5.30
2018-01-08T18:46:44.596Z,5.30
2018-01-08T18:49:12.726Z,5.30
2018-01-08T18:51:40.861Z,5.30
2018-01-08T18:54:09.001Z,5.30
2018-01-08T18:56:37.131Z,5.30
2018-01-08T18:59:05.323Z,5.30
2018-01-08T19:01:33.571Z,5.30
2018-01-08T19:04:02.496Z,5.30
2018-01-08T19:06:30.613Z,5.30
2018-01-08T19:08:59.034Z,5.30
2018-01-08T19:11:28.058Z,5.30
2018-01-08T19:13:56.318Z,5.30
2018-01-08T19:16:24.465Z,5.30
2018-01-08T19:18:53.374Z,5.30
2018-01-08T19:21:21.506Z,5.30
2018-01-08T19:23:49.762Z,5.30
2018-01-08T19:26:17.960Z,5.30
2018-01-08T19:28:46.222Z,5.20
2018-01-08T19:31:14.400Z,5.30
2018-01-08T19:33:42.530Z,5.20
2018-01-08T19:36:11.064Z,5.20
2018-01-08T19:38:40.424Z,5.20
2018-01-08T19:41:08.571Z,5.20
2018-01-08T19:43:36.850Z,5.20
2018-01-08T19:46:04.987Z,5.20
2018-01-08T19:48:34.081Z,5.10
2018-01-08T19:51:03.033Z,5.20
2018-01-08T19:53:31.787Z,5.10
2018-01-08T19:56:00.277Z,5.10
2018-01-08T19:58:29.327Z,5.20
2018-01-08T20:00:57.520Z,5.20
2018-01-08T20:03:26.423Z,5.10
2018-01-08T20:05:54.581Z,5.10
2018-01-08T20:08:23.484Z,5.20
2018-01-08T20:10:52.215Z,5.10
2018-01-08T20:13:20.660Z,5.10
2018-01-08T20:15:49.280Z,5.20
2018-01-08T20:18:17.480Z,5.20
2018-01-08T20:20:45.889Z,5.20
2018-01-08T20:23:14.955Z,5.20
2018-01-08T20:25:43.873Z,5.20
2018-01-08T20:28:12.161Z,5.10
2018-01-08T20:30:41.455Z,5.20
2018-01-08T20:33:10.654Z,5.10
2018-01-08T20:35:39.629Z,5.10
2018-01-08T20:38:09.044Z,5.10
2018-01-08T20:40:38.394Z,5.10
2018-01-08T20:43:06.617Z,5.10
2018-01-08T20:45:34.819Z,5.10
2018-01-08T20:48:03.065Z,5.10
2018-01-08T20:50:31.755Z,5.10
2018-01-08T20:53:01.605Z,5.10
2018-01-08T20:55:30.576Z,5.00
2018-01-08T20:57:58.819Z,5.00
2018-01-08T21:00:27.732Z,5.00
2018-01-08T21:02:56.058Z,5.00
2018-01-08T21:05:24.973Z,5.10
2018-01-08T21:07:59.492Z,5.00
2018-01-08T21:10:28.444Z,5.10
2018-01-08T21:12:56.648Z,5.00
2018-01-08T21:15:25.136Z,5.00
2018-01-08T21:17:53.309Z,5.10
2018-01-08T21:20:21.494Z,5.00
2018-01-08T21:22:49.875Z,5.00
2018-01-08T21:25:19.890Z,5.00
2018-01-08T21:27:48.571Z,5.00
2018-01-08T21:30:17.255Z,5.00
2018-01-08T21:32:46.861Z,5.00
2018-01-08T21:35:15.527Z,4.90
2018-01-08T21:37:43.656Z,4.90
2018-01-08T21:40:11.798Z,4.90
2018-01-08T21:42:40.011Z,5.00
2018-01-08T21:45:08.146Z,4.90
2018-01-08T21:47:36.316Z,4.90
2018-01-08T21:50:05.200Z,5.00
2018-01-08T21:52:33.585Z,4.90
2018-01-08T21:55:02.726Z,4.90
2018-01-08T21:57:30.886Z,4.90
2018-01-08T21:59:59.039Z,5.00
2018-01-08T22:02:27.152Z,4.90
2018-01-08T22:04:55.306Z,4.90
2018-01-08T22:07:23.647Z,4.90
2018-01-08T22:09:52.843Z,4.90
2018-01-08T22:12:20.960Z,4.90
2018-01-08T22:14:49.293Z,4.90
2018-01-08T22:17:18.162Z,4.90
2018-01-08T22:19:46.281Z,4.90
2018-01-08T22:22:14.430Z,4.90
2018-01-08T22:24:42.702Z,4.90
2018-01-08T22:27:10.823Z,4.80
2018-01-08T22:29:39.056Z,4.80
2018-01-08T22:32:08.066Z,4.80
2018-01-08T22:34:36.175Z,4.80
2018-01-08T22:37:05.067Z,4.80
2018-01-08T22:39:33.970Z,4.80
2018-01-08T22:42:02.268Z,4.80
2018-01-08T22:44:30.445Z,4.80
2018-01-08T22:46:58.581Z,4.80
2018-01-08T22:49:27.473Z,4.80
2018-01-08T22:51:56.359Z,4.80
2018-01-08T22:54:25.291Z,4.80
2018-01-08T22:56:53.414Z,4.80
2018-01-08T22:59:22.456Z,4.80
2018-01-08T23:01:50.610Z,4.80
2018-01-08T23:04:18.795Z,4.90
2018-01-08T23:06:46.981Z,4.90
2018-01-08T23:09:15.140Z,4.80
2018-01-08T23:11:45.168Z,4.80
2018-01-08T23:14:14.446Z,4.70
2018-01-08T23:16:43.770Z,4.80
2018-01-08T23:19:11.865Z,4.70
2018-01-08T23:21:40.008Z,4.80
2018-01-08T23:24:08.136Z,4.80
2018-01-08T23:26:37.026Z,4.70
2018-01-08T23:29:05.918Z,4.70
2018-01-08T23:31:34.804Z,4.70
2018-01-08T23:34:03.869Z,4.70
2018-01-08T23:36:32.078Z,4.70
2018-01-08T23:39:00.984Z,4.60
2018-01-08T23:41:29.139Z,4.60
2018-01-08T23:43:58.035Z,4.60
2018-01-08T23:46:26.953Z,4.60
2018-01-08T23:48:55.056Z,4.60
2018-01-08T23:51:23.298Z,4.60
2018-01-08T23:53:52.157Z,4.60
2018-01-08T23:56:21.079Z,4.50
2018-01-08T23:58:49.204Z,4.50
